sensor_id;sensor_type;location;lat;lon;timestamp;pressure;altitude;pressure_sealevel;temperature;humidity
62712;BME280;48772;55.586;37.730;2023-08-12T00:00:34;99505.41;;;22.27;100.00
62712;BME280;48772;55.586;37.730;2023-08-12T00:03:01;99491.63;;;22.29;100.00
62712;BME280;48772;55.586;37.730;2023-08-12T00:05:27;99487.38;;;22.20;100.00
62712;BME280;48772;55.586;37.730;2023-08-12T00:07:53;99511.81;;;22.20;100.00
62712;BME280;48772;55.586;37.730;2023-08-12T00:10:19;99520.00;;;22.26;100.00
62712;BME280;48772;55.586;37.730;2023-08-12T00:12:45;99493.56;;;22.07;100.00
62712;BME280;48772;55.586;37.730;2023-08-12T00:15:11;99478.09;;;22.01;100.00
62712;BME280;48772;55.586;37.730;2023-08-12T00:17:37;99465.53;;;22.00;100.00
62712;BME280;48772;55.586;37.730;2023-08-12T00:20:07;99486.75;;;22.18;100.00
62712;BME280;48772;55.586;37.730;2023-08-12T00:22:37;99488.44;;;22.25;100.00
62712;BME280;48772;55.586;37.730;2023-08-12T00:25:05;99493.25;;;22.23;100.00
62712;BME280;48772;55.586;37.730;2023-08-12T00:27:31;99496.38;;;22.20;100.00
62712;BME280;48772;55.586;37.730;2023-08-12T00:29:57;99487.34;;;22.13;100.00
62712;BME280;48772;55.586;37.730;2023-08-12T00:32:24;99468.91;;;22.02;100.00
62712;BME280;48772;55.586;37.730;2023-08-12T00:34:50;99493.66;;;22.20;100.00
62712;BME280;48772;55.586;37.730;2023-08-12T00:37:16;99506.19;;;22.21;100.00
62712;BME280;48772;55.586;37.730;2023-08-12T00:39:42;99489.19;;;22.06;100.00
62712;BME280;48772;55.586;37.730;2023-08-12T00:42:07;99515.59;;;22.19;100.00
62712;BME280;48772;55.586;37.730;2023-08-12T00:44:35;99480.94;;;21.93;100.00
62712;BME280;48772;55.586;37.730;2023-08-12T00:47:04;99500.91;;;22.07;100.00
62712;BME280;48772;55.586;37.730;2023-08-12T00:49:31;99509.06;;;22.13;100.00
62712;BME280;48772;55.586;37.730;2023-08-12T00:51:59;99483.75;;;22.06;100.00
62712;BME280;48772;55.586;37.730;2023-08-12T00:54:26;99442.91;;;21.93;100.00
62712;BME280;48772;55.586;37.730;2023-08-12T00:56:53;99482.53;;;22.15;100.00
62712;BME280;48772;55.586;37.730;2023-08-12T00:59:20;99481.03;;;22.06;100.00
62712;BME280;48772;55.586;37.730;2023-08-12T01:01:47;99475.78;;;22.05;100.00
62712;BME280;48772;55.586;37.730;2023-08-12T01:04:13;99488.78;;;22.09;100.00
62712;BME280;48772;55.586;37.730;2023-08-12T01:06:40;99503.16;;;22.03;100.00
62712;BME280;48772;55.586;37.730;2023-08-12T01:09:09;99498.50;;;21.97;100.00
62712;BME280;48772;55.586;37.730;2023-08-12T01:11:41;99509.81;;;22.01;100.00
62712;BME280;48772;55.586;37.730;2023-08-12T01:16:52;99499.34;;;21.98;100.00
62712;BME280;48772;55.586;37.730;2023-08-12T01:19:32;99494.13;;;21.96;100.00
62712;BME280;48772;55.586;37.730;2023-08-12T01:22:00;99460.59;;;21.76;100.00
62712;BME280;48772;55.586;37.730;2023-08-12T01:24:44;99490.91;;;21.86;100.00
62712;BME280;48772;55.586;37.730;2023-08-12T01:27:11;99484.66;;;21.86;100.00
62712;BME280;48772;55.586;37.730;2023-08-12T01:29:41;99469.69;;;21.69;100.00
62712;BME280;48772;55.586;37.730;2023-08-12T01:32:15;99502.59;;;21.80;100.00
62712;BME280;48772;55.586;37.730;2023-08-12T01:34:52;99481.19;;;21.71;100.00
62712;BME280;48772;55.586;37.730;2023-08-12T01:37:28;99483.31;;;21.75;100.00
62712;BME280;48772;55.586;37.730;2023-08-12T01:39:55;99455.00;;;21.63;100.00
62712;BME280;48772;55.586;37.730;2023-08-12T01:42:23;99481.44;;;21.76;100.00
62712;BME280;48772;55.586;37.730;2023-08-12T01:44:49;99466.22;;;21.75;100.00
62712;BME280;48772;55.586;37.730;2023-08-12T01:47:15;99470.78;;;21.74;100.00
62712;BME280;48772;55.586;37.730;2023-08-12T01:49:41;99438.88;;;21.55;100.00
62712;BME280;48772;55.586;37.730;2023-08-12T01:52:07;99451.69;;;21.61;100.00
62712;BME280;48772;55.586;37.730;2023-08-12T01:54:34;99451.25;;;21.64;100.00
62712;BME280;48772;55.586;37.730;2023-08-12T01:57:04;99446.19;;;21.55;100.00
62712;BME280;48772;55.586;37.730;2023-08-12T01:59:32;99447.91;;;21.62;100.00
62712;BME280;48772;55.586;37.730;2023-08-12T02:01:57;99409.47;;;21.31;100.00
62712;BME280;48772;55.586;37.730;2023-08-12T02:04:26;99462.28;;;21.56;100.00
62712;BME280;48772;55.586;37.730;2023-08-12T02:06:52;99456.25;;;21.61;100.00
62712;BME280;48772;55.586;37.730;2023-08-12T02:09:19;99459.81;;;21.61;100.00
62712;BME280;48772;55.586;37.730;2023-08-12T02:11:45;99457.34;;;21.66;100.00
62712;BME280;48772;55.586;37.730;2023-08-12T02:14:11;99463.56;;;21.60;100.00
62712;BME280;48772;55.586;37.730;2023-08-12T02:16:37;99410.44;;;21.45;100.00
62712;BME280;48772;55.586;37.730;2023-08-12T02:19:23;99451.25;;;21.64;100.00
62712;BME280;48772;55.586;37.730;2023-08-12T02:21:48;99444.50;;;21.54;100.00
62712;BME280;48772;55.586;37.730;2023-08-12T02:24:14;99421.53;;;21.50;100.00
62712;BME280;48772;55.586;37.730;2023-08-12T02:26:40;99442.00;;;21.52;100.00
62712;BME280;48772;55.586;37.730;2023-08-12T02:29:06;99445.94;;;21.50;100.00
62712;BME280;48772;55.586;37.730;2023-08-12T02:31:32;99451.41;;;21.56;100.00
62712;BME280;48772;55.586;37.730;2023-08-12T02:33:58;99468.09;;;21.53;100.00
62712;BME280;48772;55.586;37.730;2023-08-12T02:36:25;99455.88;;;21.36;100.00
62712;BME280;48772;55.586;37.730;2023-08-12T02:38:55;99468.38;;;21.37;100.00
62712;BME280;48772;55.586;37.730;2023-08-12T02:41:21;99473.44;;;21.40;100.00
62712;BME280;48772;55.586;37.730;2023-08-12T02:43:47;99459.41;;;21.37;100.00
62712;BME280;48772;55.586;37.730;2023-08-12T02:46:13;99467.72;;;21.35;100.00
62712;BME280;48772;55.586;37.730;2023-08-12T02:48:42;99458.19;;;21.39;100.00
62712;BME280;48772;55.586;37.730;2023-08-12T02:51:09;99457.09;;;21.34;100.00
62712;BME280;48772;55.586;37.730;2023-08-12T02:53:36;99439.31;;;21.31;100.00
62712;BME280;48772;55.586;37.730;2023-08-12T02:56:02;99454.03;;;21.43;100.00
62712;BME280;48772;55.586;37.730;2023-08-12T02:58:28;99406.47;;;21.20;100.00
62712;BME280;48772;55.586;37.730;2023-08-12T03:00:55;99418.28;;;21.33;100.00
62712;BME280;48772;55.586;37.730;2023-08-12T03:03:21;99416.19;;;21.35;100.00
62712;BME280;48772;55.586;37.730;2023-08-12T03:05:47;99404.06;;;21.31;100.00
62712;BME280;48772;55.586;37.730;2023-08-12T03:08:13;99412.84;;;21.33;100.00
62712;BME280;48772;55.586;37.730;2023-08-12T03:10:40;99429.13;;;21.33;100.00
62712;BME280;48772;55.586;37.730;2023-08-12T03:13:07;99423.53;;;21.41;100.00
62712;BME280;48772;55.586;37.730;2023-08-12T03:15:33;99384.81;;;21.26;100.00
62712;BME280;48772;55.586;37.730;2023-08-12T03:17:59;99398.72;;;21.44;100.00
62712;BME280;48772;55.586;37.730;2023-08-12T03:20:26;99407.19;;;21.56;100.00
62712;BME280;48772;55.586;37.730;2023-08-12T03:22:52;99409.47;;;21.59;100.00
62712;BME280;48772;55.586;37.730;2023-08-12T03:25:18;99405.13;;;21.64;100.00
62712;BME280;48772;55.586;37.730;2023-08-12T03:27:45;99415.97;;;21.64;100.00
62712;BME280;48772;55.586;37.730;2023-08-12T03:30:11;99397.78;;;21.58;100.00
62712;BME280;48772;55.586;37.730;2023-08-12T03:32:38;99387.94;;;21.57;100.00
62712;BME280;48772;55.586;37.730;2023-08-12T03:35:04;99416.28;;;21.76;100.00
62712;BME280;48772;55.586;37.730;2023-08-12T03:37:31;99413.53;;;21.69;100.00
62712;BME280;48772;55.586;37.730;2023-08-12T03:39:58;99403.84;;;21.60;100.00
62712;BME280;48772;55.586;37.730;2023-08-12T03:42:24;99419.25;;;21.53;100.00
62712;BME280;48772;55.586;37.730;2023-08-12T03:44:50;99428.66;;;21.57;100.00
62712;BME280;48772;55.586;37.730;2023-08-12T03:47:17;99407.31;;;21.48;100.00
62712;BME280;48772;55.586;37.730;2023-08-12T03:49:48;99419.69;;;21.57;100.00
62712;BME280;48772;55.586;37.730;2023-08-12T03:52:14;99398.06;;;21.42;100.00
62712;BME280;48772;55.586;37.730;2023-08-12T03:54:41;99386.16;;;21.37;100.00
62712;BME280;48772;55.586;37.730;2023-08-12T03:57:06;99433.88;;;21.59;100.00
62712;BME280;48772;55.586;37.730;2023-08-12T03:59:33;99419.19;;;21.47;100.00
62712;BME280;48772;55.586;37.730;2023-08-12T04:01:59;99422.75;;;21.47;100.00
62712;BME280;48772;55.586;37.730;2023-08-12T04:04:26;99423.38;;;21.49;100.00
62712;BME280;48772;55.586;37.730;2023-08-12T04:06:51;99452.22;;;21.50;100.00
62712;BME280;48772;55.586;37.730;2023-08-12T04:09:18;99410.56;;;21.37;100.00
62712;BME280;48772;55.586;37.730;2023-08-12T04:11:44;99436.75;;;21.51;100.00
62712;BME280;48772;55.586;37.730;2023-08-12T04:14:11;99381.22;;;21.19;100.00
62712;BME280;48772;55.586;37.730;2023-08-12T04:16:37;99415.63;;;21.46;100.00
62712;BME280;48772;55.586;37.730;2023-08-12T04:19:03;99424.84;;;21.52;100.00
62712;BME280;48772;55.586;37.730;2023-08-12T04:21:29;99434.69;;;21.53;100.00
62712;BME280;48772;55.586;37.730;2023-08-12T04:23:55;99410.13;;;21.33;100.00
62712;BME280;48772;55.586;37.730;2023-08-12T04:26:21;99435.97;;;21.57;100.00
62712;BME280;48772;55.586;37.730;2023-08-12T04:28:47;99435.59;;;21.60;100.00
62712;BME280;48772;55.586;37.730;2023-08-12T04:31:13;99426.09;;;21.49;100.00
62712;BME280;48772;55.586;37.730;2023-08-12T04:33:41;99421.31;;;21.51;100.00
62712;BME280;48772;55.586;37.730;2023-08-12T04:36:08;99415.44;;;21.48;100.00
62712;BME280;48772;55.586;37.730;2023-08-12T04:38:33;99438.88;;;21.55;100.00
62712;BME280;48772;55.586;37.730;2023-08-12T04:41:03;99431.13;;;21.52;100.00
62712;BME280;48772;55.586;37.730;2023-08-12T04:43:29;99437.47;;;21.59;100.00
62712;BME280;48772;55.586;37.730;2023-08-12T04:45:57;99447.66;;;21.57;100.00
62712;BME280;48772;55.586;37.730;2023-08-12T04:48:23;99464.38;;;21.54;100.00
62712;BME280;48772;55.586;37.730;2023-08-12T04:50:48;99458.63;;;21.43;100.00
62712;BME280;48772;55.586;37.730;2023-08-12T04:53:16;99450.06;;;21.39;100.00
62712;BME280;48772;55.586;37.730;2023-08-12T04:55:42;99454.28;;;21.48;100.00
62712;BME280;48772;55.586;37.730;2023-08-12T04:58:08;99435.06;;;21.43;100.00
62712;BME280;48772;55.586;37.730;2023-08-12T05:00:34;99437.03;;;21.56;100.00
62712;BME280;48772;55.586;37.730;2023-08-12T05:03:00;99412.31;;;21.44;100.00
62712;BME280;48772;55.586;37.730;2023-08-12T05:05:27;99426.81;;;21.64;100.00
62712;BME280;48772;55.586;37.730;2023-08-12T05:07:53;99421.41;;;21.64;100.00
62712;BME280;48772;55.586;37.730;2023-08-12T05:10:19;99407.00;;;21.64;100.00
62712;BME280;48772;55.586;37.730;2023-08-12T05:12:45;99395.50;;;21.62;100.00
62712;BME280;48772;55.586;37.730;2023-08-12T05:15:13;99384.59;;;21.49;100.00
62712;BME280;48772;55.586;37.730;2023-08-12T05:17:39;99395.38;;;21.42;100.00
62712;BME280;48772;55.586;37.730;2023-08-12T05:20:07;99417.06;;;21.42;100.00
62712;BME280;48772;55.586;37.730;2023-08-12T05:22:34;99416.19;;;21.35;100.00
62712;BME280;48772;55.586;37.730;2023-08-12T05:24:59;99421.88;;;21.40;100.00
62712;BME280;48772;55.586;37.730;2023-08-12T05:27:25;99382.34;;;21.31;100.00
62712;BME280;48772;55.586;37.730;2023-08-12T05:29:51;99376.56;;;21.41;100.00
62712;BME280;48772;55.586;37.730;2023-08-12T05:32:17;99365.47;;;21.36;100.00
62712;BME280;48772;55.586;37.730;2023-08-12T05:34:43;99340.22;;;21.35;100.00
62712;BME280;48772;55.586;37.730;2023-08-12T05:37:09;99334.00;;;21.41;100.00
62712;BME280;48772;55.586;37.730;2023-08-12T05:39:35;99322.72;;;21.38;100.00
62712;BME280;48772;55.586;37.730;2023-08-12T05:42:01;99290.53;;;21.28;100.00
62712;BME280;48772;55.586;37.730;2023-08-12T05:44:27;99317.34;;;21.44;100.00
62712;BME280;48772;55.586;37.730;2023-08-12T05:46:53;99321.50;;;21.40;100.00
62712;BME280;48772;55.586;37.730;2023-08-12T05:49:18;99326.88;;;21.34;100.00
62712;BME280;48772;55.586;37.730;2023-08-12T05:51:44;99323.94;;;21.35;100.00
62712;BME280;48772;55.586;37.730;2023-08-12T05:54:10;99326.06;;;21.40;100.00
62712;BME280;48772;55.586;37.730;2023-08-12T05:56:36;99311.06;;;21.44;100.00
62712;BME280;48772;55.586;37.730;2023-08-12T05:59:02;99317.16;;;21.52;100.00
62712;BME280;48772;55.586;37.730;2023-08-12T06:01:28;99316.78;;;21.62;100.00
62712;BME280;48772;55.586;37.730;2023-08-12T06:03:54;99312.63;;;21.66;100.00
62712;BME280;48772;55.586;37.730;2023-08-12T06:06:20;99306.25;;;21.80;100.00
62712;BME280;48772;55.586;37.730;2023-08-12T06:08:45;99276.75;;;21.70;100.00
62712;BME280;48772;55.586;37.730;2023-08-12T06:11:11;99309.25;;;21.91;100.00
62712;BME280;48772;55.586;37.730;2023-08-12T06:13:37;99311.34;;;21.96;100.00
62712;BME280;48772;55.586;37.730;2023-08-12T06:16:03;99314.50;;;21.99;100.00
62712;BME280;48772;55.586;37.730;2023-08-12T06:18:30;99320.13;;;22.04;100.00
62712;BME280;48772;55.586;37.730;2023-08-12T06:20:56;99301.31;;;21.96;100.00
62712;BME280;48772;55.586;37.730;2023-08-12T06:23:22;99316.63;;;22.10;100.00
62712;BME280;48772;55.586;37.730;2023-08-12T06:25:47;99322.44;;;22.07;100.00
62712;BME280;48772;55.586;37.730;2023-08-12T06:28:13;99318.06;;;22.06;100.00
62712;BME280;48772;55.586;37.730;2023-08-12T06:30:40;99327.69;;;22.09;100.00
62712;BME280;48772;55.586;37.730;2023-08-12T06:33:06;99324.75;;;22.10;100.00
62712;BME280;48772;55.586;37.730;2023-08-12T06:35:32;99306.34;;;21.99;100.00
62712;BME280;48772;55.586;37.730;2023-08-12T06:37:57;99326.03;;;22.21;100.00
62712;BME280;48772;55.586;37.730;2023-08-12T06:40:23;99298.25;;;22.12;100.00
62712;BME280;48772;55.586;37.730;2023-08-12T06:42:50;99317.72;;;22.29;100.00
62712;BME280;48772;55.586;37.730;2023-08-12T06:45:15;99331.53;;;22.47;100.00
62712;BME280;48772;55.586;37.730;2023-08-12T06:47:41;99315.91;;;22.56;100.00
62712;BME280;48772;55.586;37.730;2023-08-12T06:50:08;99325.31;;;22.60;100.00
62712;BME280;48772;55.586;37.730;2023-08-12T06:52:34;99284.06;;;22.36;100.00
62712;BME280;48772;55.586;37.730;2023-08-12T06:55:00;99320.50;;;22.62;100.00
62712;BME280;48772;55.586;37.730;2023-08-12T06:57:26;99314.44;;;22.60;100.00
62712;BME280;48772;55.586;37.730;2023-08-12T06:59:51;99304.22;;;22.55;100.00
62712;BME280;48772;55.586;37.730;2023-08-12T07:02:17;99291.63;;;22.54;100.00
62712;BME280;48772;55.586;37.730;2023-08-12T07:04:43;99314.03;;;22.76;100.00
62712;BME280;48772;55.586;37.730;2023-08-12T07:07:09;99306.91;;;22.75;100.00
62712;BME280;48772;55.586;37.730;2023-08-12T07:09:35;99303.56;;;22.86;100.00
62712;BME280;48772;55.586;37.730;2023-08-12T07:12:01;99294.56;;;22.92;100.00
62712;BME280;48772;55.586;37.730;2023-08-12T07:14:29;99300.03;;;23.05;100.00
62712;BME280;48772;55.586;37.730;2023-08-12T07:16:55;99284.94;;;23.09;100.00
62712;BME280;48772;55.586;37.730;2023-08-12T07:19:21;99260.44;;;23.02;100.00
62712;BME280;48772;55.586;37.730;2023-08-12T07:21:47;99284.31;;;23.13;100.00
62712;BME280;48772;55.586;37.730;2023-08-12T07:24:13;99294.13;;;23.21;100.00
62712;BME280;48772;55.586;37.730;2023-08-12T07:26:39;99282.22;;;23.22;100.00
62712;BME280;48772;55.586;37.730;2023-08-12T07:29:05;99302.50;;;23.26;100.00
62712;BME280;48772;55.586;37.730;2023-08-12T07:31:30;99296.25;;;23.25;100.00
62712;BME280;48772;55.586;37.730;2023-08-12T07:33:56;99300.44;;;23.21;100.00
62712;BME280;48772;55.586;37.730;2023-08-12T07:36:22;99302.72;;;23.18;100.00
62712;BME280;48772;55.586;37.730;2023-08-12T07:38:48;99309.84;;;23.19;100.00
62712;BME280;48772;55.586;37.730;2023-08-12T07:41:14;99301.28;;;23.09;100.00
62712;BME280;48772;55.586;37.730;2023-08-12T07:43:40;99315.28;;;23.06;100.00
62712;BME280;48772;55.586;37.730;2023-08-12T07:46:06;99333.09;;;23.02;100.00
62712;BME280;48772;55.586;37.730;2023-08-12T07:48:31;99324.47;;;22.98;100.00
62712;BME280;48772;55.586;37.730;2023-08-12T07:50:57;99340.41;;;22.95;100.00
62712;BME280;48772;55.586;37.730;2023-08-12T07:53:24;99347.09;;;22.92;100.00
62712;BME280;48772;55.586;37.730;2023-08-12T07:55:49;99336.66;;;22.83;100.00
62712;BME280;48772;55.586;37.730;2023-08-12T07:58:15;99300.03;;;22.66;100.00
62712;BME280;48772;55.586;37.730;2023-08-12T08:00:41;99299.81;;;22.74;100.00
62712;BME280;48772;55.586;37.730;2023-08-12T08:03:07;99298.97;;;22.67;100.00
62712;BME280;48772;55.586;37.730;2023-08-12T08:05:33;99294.19;;;22.69;100.00
62712;BME280;48772;55.586;37.730;2023-08-12T08:07:59;99313.63;;;22.66;100.00
62712;BME280;48772;55.586;37.730;2023-08-12T08:10:25;99316.34;;;22.59;100.00
62712;BME280;48772;55.586;37.730;2023-08-12T08:12:51;99292.84;;;22.25;100.00
62712;BME280;48772;55.586;37.730;2023-08-12T08:15:17;99334.31;;;22.60;100.00
62712;BME280;48772;55.586;37.730;2023-08-12T08:17:43;99332.22;;;22.56;100.00
62712;BME280;48772;55.586;37.730;2023-08-12T08:20:09;99329.50;;;22.56;100.00
62712;BME280;48772;55.586;37.730;2023-08-12T08:22:36;99326.16;;;22.54;100.00
62712;BME280;48772;55.586;37.730;2023-08-12T08:25:03;99303.72;;;22.45;100.00
62712;BME280;48772;55.586;37.730;2023-08-12T08:27:30;99335.78;;;22.56;100.00
62712;BME280;48772;55.586;37.730;2023-08-12T08:29:57;99335.16;;;22.61;100.00
62712;BME280;48772;55.586;37.730;2023-08-12T08:32:23;99364.63;;;22.64;100.00
62712;BME280;48772;55.586;37.730;2023-08-12T08:34:49;99358.56;;;22.62;100.00
62712;BME280;48772;55.586;37.730;2023-08-12T08:37:16;99372.16;;;22.75;100.00
62712;BME280;48772;55.586;37.730;2023-08-12T08:39:41;99343.31;;;22.67;100.00
62712;BME280;48772;55.586;37.730;2023-08-12T08:42:09;99341.44;;;22.74;100.00
62712;BME280;48772;55.586;37.730;2023-08-12T08:44:37;99355.03;;;22.81;100.00
62712;BME280;48772;55.586;37.730;2023-08-12T08:47:06;99336.19;;;22.86;100.00
62712;BME280;48772;55.586;37.730;2023-08-12T08:49:32;99335.56;;;22.97;100.00
62712;BME280;48772;55.586;37.730;2023-08-12T08:52:00;99337.47;;;22.96;100.00
62712;BME280;48772;55.586;37.730;2023-08-12T08:54:26;99340.81;;;22.92;100.00
62712;BME280;48772;55.586;37.730;2023-08-12T08:56:52;99334.56;;;22.98;100.00
62712;BME280;48772;55.586;37.730;2023-08-12T08:59:18;99327.84;;;23.00;100.00
62712;BME280;48772;55.586;37.730;2023-08-12T09:01:46;99320.94;;;22.98;100.00
62712;BME280;48772;55.586;37.730;2023-08-12T09:04:15;99339.56;;;23.01;100.00
62712;BME280;48772;55.586;37.730;2023-08-12T09:06:41;99340.41;;;22.95;100.00
62712;BME280;48772;55.586;37.730;2023-08-12T09:09:14;99324.06;;;22.82;100.00
62712;BME280;48772;55.586;37.730;2023-08-12T09:11:42;99332.66;;;22.79;100.00
62712;BME280;48772;55.586;37.730;2023-08-12T09:14:09;99342.06;;;22.70;100.00
62712;BME280;48772;55.586;37.730;2023-08-12T09:16:36;99319.88;;;22.60;100.00
62712;BME280;48772;55.586;37.730;2023-08-12T09:19:03;99375.53;;;22.70;100.00
62712;BME280;48772;55.586;37.730;2023-08-12T09:21:30;99403.97;;;22.68;100.00
62712;BME280;48772;55.586;37.730;2023-08-12T09:23:56;99378.66;;;22.67;100.00
62712;BME280;48772;55.586;37.730;2023-08-12T09:26:22;99367.56;;;22.69;100.00
62712;BME280;48772;55.586;37.730;2023-08-12T09:28:48;99364.63;;;22.64;100.00
62712;BME280;48772;55.586;37.730;2023-08-12T09:31:29;99364.66;;;22.70;100.00
62712;BME280;48772;55.586;37.730;2023-08-12T09:34:06;99362.75;;;22.71;100.00
62712;BME280;48772;55.586;37.730;2023-08-12T09:36:33;99360.69;;;22.73;100.00
62712;BME280;48772;55.586;37.730;2023-08-12T09:38:59;99349.81;;;22.73;100.00
62712;BME280;48772;55.586;37.730;2023-08-12T09:41:28;99330.56;;;22.74;100.00
62712;BME280;48772;55.586;37.730;2023-08-12T09:43:55;99346.03;;;22.80;100.00
62712;BME280;48772;55.586;37.730;2023-08-12T09:46:22;99334.97;;;22.69;100.00
62712;BME280;48772;55.586;37.730;2023-08-12T09:48:52;99313.19;;;22.56;100.00
62712;BME280;48772;55.586;37.730;2023-08-12T09:51:21;99312.50;;;22.47;100.00
62712;BME280;48772;55.586;37.730;2023-08-12T09:53:50;99321.34;;;22.56;100.00
62712;BME280;48772;55.586;37.730;2023-08-12T09:56:18;99325.09;;;22.55;100.00
62712;BME280;48772;55.586;37.730;2023-08-12T09:58:47;99320.66;;;22.47;100.00
62712;BME280;48772;55.586;37.730;2023-08-12T10:01:18;99326.56;;;22.51;100.00
62712;BME280;48772;55.586;37.730;2023-08-12T10:03:48;99325.09;;;22.55;100.00
62712;BME280;48772;55.586;37.730;2023-08-12T10:06:15;99337.66;;;22.56;100.00
62712;BME280;48772;55.586;37.730;2023-08-12T10:08:41;99334.91;;;22.49;100.00
62712;BME280;48772;55.586;37.730;2023-08-12T10:11:07;99318.13;;;22.32;100.00
62712;BME280;48772;55.586;37.730;2023-08-12T10:13:36;99336.09;;;22.27;100.00
62712;BME280;48772;55.586;37.730;2023-08-12T10:16:02;99314.69;;;22.04;100.00
62712;BME280;48772;55.586;37.730;2023-08-12T10:18:28;99333.09;;;22.02;100.00
62712;BME280;48772;55.586;37.730;2023-08-12T10:20:57;99339.97;;;21.98;100.00
62712;BME280;48772;55.586;37.730;2023-08-12T10:23:25;99350.63;;;22.00;100.00
62712;BME280;48772;55.586;37.730;2023-08-12T10:25:54;99352.28;;;21.94;100.00
62712;BME280;48772;55.586;37.730;2023-08-12T10:28:20;99340.38;;;21.89;100.00
62712;BME280;48772;55.586;37.730;2023-08-12T10:30:47;99343.91;;;21.89;100.00
62712;BME280;48772;55.586;37.730;2023-08-12T10:33:14;99362.03;;;21.82;100.00
62712;BME280;48772;55.586;37.730;2023-08-12T10:35:46;99335.44;;;21.71;100.00
62712;BME280;48772;55.586;37.730;2023-08-12T10:38:20;99341.16;;;21.83;100.00
62712;BME280;48772;55.586;37.730;2023-08-12T10:40:47;99260.91;;;21.27;100.00
62712;BME280;48772;55.586;37.730;2023-08-12T10:43:14;99331.44;;;21.67;100.00
62712;BME280;48772;55.586;37.730;2023-08-12T10:45:51;99320.53;;;21.54;100.00
62712;BME280;48772;55.586;37.730;2023-08-12T10:48:18;99358.94;;;21.58;100.00
62712;BME280;48772;55.586;37.730;2023-08-12T10:50:53;99372.13;;;21.61;100.00
62712;BME280;48772;55.586;37.730;2023-08-12T10:53:29;99378.72;;;21.52;100.00
62712;BME280;48772;55.586;37.730;2023-08-12T10:56:03;99356.25;;;21.30;100.00
62712;BME280;48772;55.586;37.730;2023-08-12T10:58:36;99412.31;;;21.44;100.00
62712;BME280;48772;55.586;37.730;2023-08-12T11:01:13;99417.88;;;21.36;100.00
62712;BME280;48772;55.586;37.730;2023-08-12T11:03:42;99414.50;;;21.34;100.00
62712;BME280;48772;55.586;37.730;2023-08-12T11:06:10;99417.50;;;21.39;100.00
62712;BME280;48772;55.586;37.730;2023-08-12T11:08:36;99409.47;;;21.31;100.00
62712;BME280;48772;55.586;37.730;2023-08-12T11:11:02;99420.44;;;21.44;100.00
62712;BME280;48772;55.586;37.730;2023-08-12T11:13:28;99449.91;;;21.47;100.00
62712;BME280;48772;55.586;37.730;2023-08-12T11:16:09;99450.06;;;21.39;100.00
62712;BME280;48772;55.586;37.730;2023-08-12T11:18:35;99445.47;;;21.19;100.00
62712;BME280;48772;55.586;37.730;2023-08-12T11:21:02;99423.00;;;21.04;100.00
62712;BME280;48772;55.586;37.730;2023-08-12T11:23:29;99440.66;;;20.93;100.00
62712;BME280;48772;55.586;37.730;2023-08-12T11:25:54;99408.94;;;20.73;100.00
62712;BME280;48772;55.586;37.730;2023-08-12T11:28:20;99409.19;;;20.78;100.00
62712;BME280;48772;55.586;37.730;2023-08-12T11:30:46;99391.00;;;20.72;100.00
62712;BME280;48772;55.586;37.730;2023-08-12T11:33:12;99414.41;;;20.79;100.00
62712;BME280;48772;55.586;37.730;2023-08-12T11:35:39;99411.25;;;20.76;100.00
62712;BME280;48772;55.586;37.730;2023-08-12T11:38:06;99398.03;;;20.66;100.00
62712;BME280;48772;55.586;37.730;2023-08-12T11:40:34;99383.81;;;20.64;100.00
62712;BME280;48772;55.586;37.730;2023-08-12T11:43:01;99403.13;;;20.76;100.00
62712;BME280;48772;55.586;37.730;2023-08-12T11:45:27;99385.41;;;20.73;100.00
62712;BME280;48772;55.586;37.730;2023-08-12T11:47:54;99382.41;;;20.68;100.00
62712;BME280;48772;55.586;37.730;2023-08-12T11:50:26;99392.28;;;20.76;100.00
62712;BME280;48772;55.586;37.730;2023-08-12T11:52:53;99379.69;;;20.68;100.00
62712;BME280;48772;55.586;37.730;2023-08-12T11:55:20;99365.00;;;20.56;100.00
62712;BME280;48772;55.586;37.730;2023-08-12T11:57:46;99398.03;;;20.66;100.00
62712;BME280;48772;55.586;37.730;2023-08-12T12:00:13;99401.38;;;20.68;100.00
62712;BME280;48772;55.586;37.730;2023-08-12T12:02:52;99410.00;;;20.57;100.00
62712;BME280;48772;55.586;37.730;2023-08-12T12:05:22;99404.97;;;20.54;100.00
62712;BME280;48772;55.586;37.730;2023-08-12T12:07:49;99352.84;;;20.31;100.00
62712;BME280;48772;55.586;37.730;2023-08-12T12:10:19;99373.81;;;20.44;100.00
62712;BME280;48772;55.586;37.730;2023-08-12T12:12:46;99341.34;;;20.29;100.00
62712;BME280;48772;55.586;37.730;2023-08-12T12:15:13;99358.50;;;20.36;100.00
62712;BME280;48772;55.586;37.730;2023-08-12T12:17:40;99334.63;;;20.25;100.00
62712;BME280;48772;55.586;37.730;2023-08-12T12:20:07;99321.22;;;20.17;100.00
62712;BME280;48772;55.586;37.730;2023-08-12T12:22:33;99300.78;;;20.15;100.00
62712;BME280;48772;55.586;37.730;2023-08-12T12:25:00;99321.41;;;20.16;100.00
62712;BME280;48772;55.586;37.730;2023-08-12T12:27:30;99287.72;;;20.04;100.00
62712;BME280;48772;55.586;37.730;2023-08-12T12:29:56;99282.88;;;19.99;100.00
62712;BME280;48772;55.586;37.730;2023-08-12T12:32:22;99262.94;;;20.00;100.00
62712;BME280;48772;55.586;37.730;2023-08-12T12:34:48;99251.06;;;20.01;100.00
62712;BME280;48772;55.586;37.730;2023-08-12T12:37:14;99226.03;;;19.99;100.00
62712;BME280;48772;55.586;37.730;2023-08-12T12:39:40;99263.19;;;20.05;100.00
62712;BME280;48772;55.586;37.730;2023-08-12T12:42:06;99277.28;;;20.01;100.00